createdAt,value
2018-08-25T00:00:14.829Z,2.37
2018-08-25T00:01:18.220Z,8.73
2018-08-25T00:02:21.621Z,6.40
2018-08-25T00:03:25.115Z,11.30
2018-08-25T00:04:28.506Z,3.03
2018-08-25T00:05:31.919Z,3.33
2018-08-25T00:06:35.318Z,6.40
2018-08-25T00:07:38.746Z,2.10
2018-08-25T00:08:42.201Z,2.70
2018-08-25T00:09:45.584Z,3.67
2018-08-25T00:10:48.989Z,3.20
2018-08-25T00:11:52.392Z,3.53
2018-08-25T00:12:55.811Z,7.93
2018-08-25T00:13:59.228Z,8.33
2018-08-25T00:15:02.629Z,7.33
2018-08-25T00:16:06.222Z,1.80
2018-08-25T00:17:09.658Z,2.83
2018-08-25T00:18:13.110Z,4.83
2018-08-25T00:19:16.596Z,6.57
2018-08-25T00:20:20.039Z,2.33
2018-08-25T00:21:23.500Z,3.53
2018-08-25T00:22:27.023Z,6.03
2018-08-25T00:23:30.395Z,4.90
2018-08-25T00:24:33.774Z,2.60
2018-08-25T00:25:37.183Z,2.93
2018-08-25T00:26:40.546Z,1.80
2018-08-25T00:27:43.933Z,3.27
2018-08-25T00:28:47.285Z,4.30
2018-08-25T00:29:50.719Z,2.93
2018-08-25T00:30:59.435Z,3.20
2018-08-25T00:32:02.838Z,2.13
2018-08-25T00:33:06.244Z,3.10
2018-08-25T00:34:09.657Z,1.30
2018-08-25T00:35:13.096Z,3.80
2018-08-25T00:36:16.496Z,3.73
2018-08-25T00:37:20.662Z,5.97
2018-08-25T00:38:24.084Z,3.50
2018-08-25T00:39:27.521Z,6.43
2018-08-25T00:40:30.913Z,1.83
2018-08-25T00:41:34.319Z,5.60
2018-08-25T00:42:37.780Z,6.13
2018-08-25T00:43:41.222Z,5.83
2018-08-25T00:44:44.690Z,3.40
2018-08-25T00:45:48.137Z,3.13
2018-08-25T00:46:51.536Z,3.73
2018-08-25T00:47:55.135Z,4.27
2018-08-25T00:48:58.564Z,2.00
2018-08-25T00:50:02.049Z,2.00
2018-08-25T00:51:05.718Z,1.73
2018-08-25T00:52:09.172Z,1.40
2018-08-25T00:53:12.560Z,3.50
2018-08-25T00:54:15.981Z,2.83
2018-08-25T00:55:19.457Z,3.47
2018-08-25T00:56:22.818Z,2.00
2018-08-25T00:57:26.242Z,2.97
2018-08-25T00:58:29.653Z,3.73
2018-08-25T00:59:33.065Z,1.20
2018-08-25T01:00:36.676Z,3.87
2018-08-25T01:01:40.122Z,1.30
2018-08-25T01:02:43.542Z,1.70
2018-08-25T01:03:47.027Z,3.47
2018-08-25T01:04:50.416Z,2.07
2018-08-25T01:05:53.870Z,4.20
2018-08-25T01:06:57.281Z,6.13
2018-08-25T01:08:00.759Z,2.30
2018-08-25T01:09:04.922Z,3.17
2018-08-25T01:10:08.364Z,4.87
2018-08-25T01:11:11.816Z,3.67
2018-08-25T01:12:15.222Z,2.17
2018-08-25T01:13:18.643Z,2.77
2018-08-25T01:14:22.076Z,1.63
2018-08-25T01:15:25.540Z,2.67
2018-08-25T01:16:28.936Z,2.80
2018-08-25T01:17:32.328Z,13.93
2018-08-25T01:18:35.744Z,7.57
2018-08-25T01:19:39.148Z,1.67
2018-08-25T01:20:42.544Z,1.40
2018-08-25T01:21:45.973Z,1.40
2018-08-25T01:22:49.350Z,1.30
2018-08-25T01:23:52.758Z,4.67
2018-08-25T01:24:56.151Z,1.90
2018-08-25T01:25:59.520Z,2.50
2018-08-25T01:27:02.979Z,1.43
2018-08-25T01:28:06.370Z,3.53
2018-08-25T01:29:09.973Z,2.80
2018-08-25T01:30:13.464Z,3.80
2018-08-25T01:31:16.834Z,2.30
2018-08-25T01:32:20.256Z,5.10
2018-08-25T01:33:24.166Z,1.50
2018-08-25T01:34:27.547Z,1.63
2018-08-25T01:35:30.960Z,2.10
2018-08-25T01:36:34.346Z,2.10
2018-08-25T01:37:37.787Z,2.50
2018-08-25T01:38:41.173Z,2.70
2018-08-25T01:39:44.575Z,12.60
2018-08-25T01:40:47.976Z,2.80
2018-08-25T01:41:51.436Z,4.17
2018-08-25T01:42:54.899Z,3.13
2018-08-25T01:43:58.260Z,3.10
2018-08-25T01:45:01.698Z,2.77
2018-08-25T01:46:05.148Z,2.53
2018-08-25T01:47:08.530Z,4.70
2018-08-25T01:48:12.013Z,4.00
2018-08-25T01:49:15.408Z,2.70
2018-08-25T01:50:18.807Z,2.30
2018-08-25T01:51:22.236Z,5.87
2018-08-25T01:52:25.633Z,1.63
2018-08-25T01:53:29.114Z,3.97
2018-08-25T01:54:32.538Z,2.90
2018-08-25T01:55:37.170Z,2.87
2018-08-25T01:56:40.564Z,6.60
2018-08-25T01:57:43.980Z,1.97
2018-08-25T01:58:47.411Z,5.27
2018-08-25T01:59:50.812Z,4.10
2018-08-25T02:00:54.228Z,4.40
2018-08-25T02:01:57.646Z,14.60
2018-08-25T02:03:01.082Z,1.70
2018-08-25T02:04:04.479Z,1.30
2018-08-25T02:05:07.905Z,2.63
2018-08-25T02:06:11.294Z,2.50
2018-08-25T02:07:14.672Z,2.50
2018-08-25T02:08:18.068Z,3.67
2018-08-25T02:09:21.459Z,3.20
2018-08-25T02:10:24.855Z,2.33
2018-08-25T02:11:28.236Z,2.30
2018-08-25T02:12:32.010Z,1.23
2018-08-25T02:13:35.414Z,3.53
2018-08-25T02:14:38.824Z,7.23
2018-08-25T02:15:42.227Z,3.13
2018-08-25T02:16:45.634Z,2.60
2018-08-25T02:17:49.234Z,2.70
2018-08-25T02:18:53.220Z,5.03
2018-08-25T02:19:56.772Z,0.97
2018-08-25T02:21:00.177Z,3.93
2018-08-25T02:22:03.603Z,5.83
2018-08-25T02:23:07.001Z,5.90
2018-08-25T02:24:10.435Z,1.67
2018-08-25T02:25:13.812Z,2.03
2018-08-25T02:26:17.176Z,3.03
2018-08-25T02:27:20.587Z,2.60
2018-08-25T02:28:24.183Z,3.70
2018-08-25T02:29:27.537Z,1.83
2018-08-25T02:30:30.917Z,1.03
2018-08-25T02:31:34.264Z,1.33
2018-08-25T02:32:37.663Z,1.53
2018-08-25T02:33:41.137Z,8.63
2018-08-25T02:34:44.704Z,10.00
2018-08-25T02:35:48.114Z,4.53
2018-08-25T02:36:51.515Z,2.13
2018-08-25T02:37:54.870Z,0.80
2018-08-25T02:38:58.266Z,1.30
2018-08-25T02:40:01.675Z,1.70
2018-08-25T02:41:05.065Z,1.73
2018-08-25T02:42:08.574Z,4.73
2018-08-25T02:43:12.050Z,1.63
2018-08-25T02:44:15.515Z,1.20
2018-08-25T02:45:19.011Z,2.80
2018-08-25T02:46:22.397Z,1.73
2018-08-25T02:47:25.832Z,1.30
2018-08-25T02:48:29.308Z,1.57
2018-08-25T02:49:32.678Z,7.00
2018-08-25T02:50:36.079Z,2.63
2018-08-25T02:51:39.502Z,3.50
2018-08-25T02:52:42.939Z,1.93
2018-08-25T02:53:46.329Z,3.23
2018-08-25T02:54:49.721Z,0.73
2018-08-25T02:55:53.163Z,1.60
2018-08-25T02:56:56.545Z,3.70
2018-08-25T02:57:59.944Z,2.00
2018-08-25T02:59:03.370Z,1.40
2018-08-25T03:00:06.853Z,2.60
2018-08-25T03:01:10.242Z,1.33
2018-08-25T03:02:13.662Z,5.13
2018-08-25T03:03:17.093Z,2.00
2018-08-25T03:04:20.518Z,1.57
2018-08-25T03:05:23.904Z,1.00
2018-08-25T03:06:27.312Z,2.50
2018-08-25T03:07:30.691Z,1.23
2018-08-25T03:08:34.092Z,2.30
2018-08-25T03:09:37.556Z,1.17
2018-08-25T03:10:40.972Z,2.37
2018-08-25T03:11:44.375Z,2.47
2018-08-25T03:12:47.741Z,2.90
2018-08-25T03:13:51.177Z,1.83
2018-08-25T03:14:54.883Z,4.43
2018-08-25T03:15:58.411Z,1.77
2018-08-25T03:17:01.789Z,2.30
2018-08-25T03:18:05.388Z,2.47
2018-08-25T03:19:08.774Z,2.10
2018-08-25T03:20:12.164Z,1.20
2018-08-25T03:21:15.556Z,2.10
2018-08-25T03:22:18.929Z,1.53
2018-08-25T03:23:22.429Z,1.80
2018-08-25T03:24:25.880Z,2.03
2018-08-25T03:25:29.338Z,4.30
2018-08-25T03:26:32.736Z,2.10
2018-08-25T03:27:36.150Z,3.93
2018-08-25T03:28:39.584Z,2.20
2018-08-25T03:29:42.940Z,2.23
2018-08-25T03:30:46.335Z,2.03
2018-08-25T03:31:49.727Z,4.93
2018-08-25T03:32:53.128Z,2.03
2018-08-25T03:33:56.572Z,1.20
2018-08-25T03:34:59.968Z,1.03
2018-08-25T03:36:03.382Z,1.53
2018-08-25T03:37:06.796Z,3.20
2018-08-25T03:38:10.405Z,0.80
2018-08-25T03:39:13.788Z,1.57
2018-08-25T03:40:17.405Z,1.50
2018-08-25T03:41:20.818Z,1.97
2018-08-25T03:42:24.206Z,3.60
2018-08-25T03:43:27.597Z,1.90
2018-08-25T03:44:30.994Z,2.30
2018-08-25T03:45:34.408Z,2.10
2018-08-25T03:46:37.836Z,2.00
2018-08-25T03:47:41.217Z,4.30
2018-08-25T03:48:44.614Z,6.47
2018-08-25T03:49:48.000Z,3.00
2018-08-25T03:50:51.426Z,0.80
2018-08-25T03:51:54.856Z,3.13
2018-08-25T03:52:58.226Z,1.40
2018-08-25T03:54:01.688Z,2.63
2018-08-25T03:55:05.106Z,1.47
2018-08-25T03:56:08.699Z,2.90
2018-08-25T03:57:12.127Z,0.90
2018-08-25T03:58:15.541Z,1.23
2018-08-25T03:59:18.967Z,0.90
2018-08-25T04:00:23.389Z,2.00
2018-08-25T04:01:26.885Z,1.93
2018-08-25T04:02:30.242Z,2.87
2018-08-25T04:03:33.668Z,1.47
2018-08-25T04:04:37.074Z,3.30
2018-08-25T04:05:40.473Z,2.90
2018-08-25T04:06:43.892Z,1.00
2018-08-25T04:07:47.290Z,2.83
2018-08-25T04:08:50.659Z,1.30
2018-08-25T04:09:54.064Z,1.00
2018-08-25T04:10:57.483Z,1.20
2018-08-25T04:12:00.908Z,5.07
2018-08-25T04:13:04.332Z,2.20
2018-08-25T04:14:08.691Z,1.00
2018-08-25T04:15:12.035Z,4.63
2018-08-25T04:16:15.426Z,2.00
2018-08-25T04:17:19.024Z,1.03
2018-08-25T04:18:22.439Z,2.57
2018-08-25T04:19:25.936Z,4.73
2018-08-25T04:20:29.374Z,1.03
2018-08-25T04:21:32.811Z,3.13
2018-08-25T04:22:36.234Z,1.27
2018-08-25T04:23:39.628Z,1.07
2018-08-25T04:24:43.005Z,1.00
2018-08-25T04:25:46.385Z,1.63
2018-08-25T04:26:49.780Z,2.10
2018-08-25T04:27:53.385Z,2.83
2018-08-25T04:28:56.770Z,3.03
2018-08-25T04:30:00.161Z,0.80
2018-08-25T04:31:03.513Z,3.10
2018-08-25T04:32:07.049Z,1.00
2018-08-25T04:33:10.476Z,3.90
2018-08-25T04:34:13.856Z,3.30
2018-08-25T04:35:17.288Z,3.53
2018-08-25T04:36:20.661Z,5.23
2018-08-25T04:37:24.082Z,1.47
2018-08-25T04:38:27.478Z,2.30
2018-08-25T04:39:30.894Z,2.10
2018-08-25T04:40:34.307Z,1.17
2018-08-25T04:41:37.748Z,6.63
2018-08-25T04:42:41.168Z,2.50
2018-08-25T04:43:44.578Z,1.70
2018-08-25T04:44:47.986Z,1.53
2018-08-25T04:45:51.451Z,2.50
2018-08-25T04:46:54.834Z,0.93
2018-08-25T04:47:58.214Z,1.40
2018-08-25T04:49:01.602Z,1.77
2018-08-25T04:50:05.341Z,1.10
2018-08-25T04:51:08.724Z,2.13
2018-08-25T04:52:12.161Z,1.00
2018-08-25T04:53:15.581Z,1.97
2018-08-25T04:54:18.955Z,4.83
2018-08-25T04:55:22.352Z,2.50
2018-08-25T04:56:25.769Z,3.37
2018-08-25T04:57:29.196Z,1.57
2018-08-25T04:58:32.578Z,1.00
2018-08-25T04:59:36.000Z,5.50
2018-08-25T05:00:39.421Z,4.07
2018-08-25T05:01:42.863Z,3.20
2018-08-25T05:02:46.358Z,2.70
2018-08-25T05:03:49.752Z,3.13
2018-08-25T05:04:53.190Z,4.23
2018-08-25T05:05:56.671Z,1.67
2018-08-25T05:07:00.099Z,1.27
2018-08-25T05:08:03.691Z,5.50
2018-08-25T05:09:09.253Z,1.30
2018-08-25T05:10:12.676Z,3.43
2018-08-25T05:11:16.094Z,3.70
2018-08-25T05:12:19.580Z,2.50
2018-08-25T05:13:22.990Z,1.80
2018-08-25T05:14:26.403Z,3.27
2018-08-25T05:15:29.805Z,3.07
2018-08-25T05:16:33.182Z,1.10
2018-08-25T05:17:36.695Z,1.13
2018-08-25T05:18:40.065Z,2.90
2018-08-25T05:19:43.470Z,1.20
2018-08-25T05:20:46.833Z,2.33
2018-08-25T05:21:50.436Z,2.50
2018-08-25T05:22:53.801Z,2.33
2018-08-25T05:23:57.243Z,2.70
2018-08-25T05:25:00.680Z,3.40
2018-08-25T05:26:04.069Z,2.10
2018-08-25T05:27:07.467Z,2.50
2018-08-25T05:28:10.866Z,5.70
2018-08-25T05:29:14.248Z,4.40
2018-08-25T05:30:17.648Z,3.63
2018-08-25T05:31:21.095Z,11.93
2018-08-25T05:32:24.522Z,2.17
2018-08-25T05:33:27.935Z,1.70
2018-08-25T05:34:31.347Z,1.70
2018-08-25T05:35:34.728Z,4.43
2018-08-25T05:36:38.170Z,2.60
2018-08-25T05:37:41.611Z,2.23
2018-08-25T05:38:45.013Z,6.00
2018-08-25T05:39:48.389Z,1.67
2018-08-25T05:40:51.843Z,1.60
2018-08-25T05:41:57.871Z,2.00
2018-08-25T05:43:02.143Z,1.93
2018-08-25T05:44:06.571Z,2.70
2018-08-25T05:45:11.118Z,2.80
2018-08-25T05:46:15.161Z,3.90
2018-08-25T05:47:18.598Z,6.00
2018-08-25T05:48:22.058Z,2.73
2018-08-25T05:49:25.482Z,3.73
2018-08-25T05:50:28.957Z,5.23
2018-08-25T05:51:32.378Z,1.70
2018-08-25T05:52:35.794Z,4.97
2018-08-25T05:53:39.168Z,3.33
2018-08-25T05:54:42.600Z,2.70
2018-08-25T05:55:45.970Z,3.73
2018-08-25T05:56:49.463Z,2.03
2018-08-25T05:57:52.856Z,2.03
2018-08-25T05:58:56.253Z,2.37
2018-08-25T05:59:59.652Z,4.43
2018-08-25T06:01:03.099Z,2.20
2018-08-25T06:02:06.546Z,5.40
2018-08-25T06:03:09.937Z,3.33
2018-08-25T06:04:13.293Z,5.77
2018-08-25T06:05:16.681Z,3.00
2018-08-25T06:06:20.069Z,2.53
2018-08-25T06:07:23.513Z,3.23
2018-08-25T06:08:26.894Z,2.77
2018-08-25T06:09:30.315Z,1.30
2018-08-25T06:10:33.747Z,1.73
2018-08-25T06:11:37.159Z,2.27
2018-08-25T06:12:40.573Z,4.30
2018-08-25T06:13:43.951Z,3.23
2018-08-25T06:14:47.369Z,2.80
2018-08-25T06:15:50.779Z,2.60
2018-08-25T06:16:54.165Z,1.00
2018-08-25T06:17:57.664Z,1.87
2018-08-25T06:19:01.304Z,2.23
2018-08-25T06:20:04.840Z,2.30
2018-08-25T06:21:08.339Z,1.63
2018-08-25T06:22:11.729Z,1.20
2018-08-25T06:23:15.134Z,3.50
2018-08-25T06:24:18.516Z,2.50
2018-08-25T06:25:21.888Z,3.93
2018-08-25T06:26:25.281Z,1.80
2018-08-25T06:27:28.702Z,3.03
2018-08-25T06:28:32.118Z,2.00
2018-08-25T06:29:35.565Z,2.03
2018-08-25T06:30:39.006Z,2.77
2018-08-25T06:31:42.387Z,2.63
2018-08-25T06:32:45.907Z,6.50
2018-08-25T06:33:49.353Z,1.47
2018-08-25T06:34:52.940Z,2.77
2018-08-25T06:35:56.391Z,1.53
2018-08-25T06:36:59.782Z,2.43
2018-08-25T06:38:03.189Z,3.83
2018-08-25T06:39:08.467Z,1.83
2018-08-25T06:40:11.854Z,2.97
2018-08-25T06:41:15.251Z,3.00
2018-08-25T06:42:18.628Z,2.70
2018-08-25T06:43:22.044Z,1.30
2018-08-25T06:44:25.539Z,10.93
2018-08-25T06:45:28.902Z,7.90
2018-08-25T06:46:32.304Z,2.30
2018-08-25T06:47:35.701Z,3.83
2018-08-25T06:48:40.574Z,2.73
2018-08-25T06:49:44.010Z,2.33
2018-08-25T06:50:47.424Z,6.70
2018-08-25T06:51:50.816Z,2.50
2018-08-25T06:52:54.288Z,4.23
2018-08-25T06:53:57.752Z,4.03
2018-08-25T06:55:01.151Z,4.37
2018-08-25T06:56:04.576Z,3.33
2018-08-25T06:57:07.956Z,5.03
2018-08-25T06:58:11.332Z,3.00
2018-08-25T06:59:14.741Z,1.57
2018-08-25T07:00:18.172Z,2.23
2018-08-25T07:01:21.707Z,2.40
2018-08-25T07:02:25.144Z,4.57
2018-08-25T07:03:28.750Z,10.70
2018-08-25T07:04:34.105Z,3.70
2018-08-25T07:06:46.927Z,4.37
2018-08-25T07:07:50.532Z,2.20
2018-08-25T07:08:53.995Z,5.30
2018-08-25T07:09:57.404Z,3.87
2018-08-25T07:11:00.824Z,6.47
2018-08-25T07:12:04.451Z,4.00
2018-08-25T07:13:07.828Z,2.47
2018-08-25T07:14:11.710Z,3.83
2018-08-25T07:15:15.088Z,2.60
2018-08-25T07:16:18.520Z,3.93
2018-08-25T07:17:22.174Z,4.03
2018-08-25T07:18:25.581Z,4.33
2018-08-25T07:19:29.022Z,6.63
2018-08-25T07:20:32.377Z,5.57
2018-08-25T07:21:35.799Z,5.97
2018-08-25T07:22:39.218Z,5.27
2018-08-25T07:23:42.662Z,3.63
2018-08-25T07:24:46.108Z,8.60
2018-08-25T07:25:49.670Z,4.50
2018-08-25T07:26:53.095Z,4.93
2018-08-25T07:27:56.588Z,8.00
2018-08-25T07:29:00.025Z,11.77
2018-08-25T07:30:03.498Z,5.03
2018-08-25T07:31:06.896Z,3.80
2018-08-25T07:32:10.352Z,7.13
2018-08-25T07:33:13.723Z,5.13
2018-08-25T07:34:17.121Z,2.30
2018-08-25T07:35:20.506Z,5.77
2018-08-25T07:36:23.948Z,2.37
2018-08-25T07:37:27.416Z,4.60
2018-08-25T07:38:30.797Z,4.07
2018-08-25T07:39:34.230Z,3.30
2018-08-25T07:40:37.627Z,7.13
2018-08-25T07:41:41.406Z,1.93
2018-08-25T07:42:44.921Z,2.33
2018-08-25T07:43:48.282Z,4.87
2018-08-25T07:44:51.711Z,3.30
2018-08-25T07:45:55.112Z,4.13
2018-08-25T07:46:58.507Z,5.23
2018-08-25T07:48:01.952Z,8.43
2018-08-25T07:49:05.344Z,5.00
2018-08-25T07:50:09.407Z,8.03
2018-08-25T07:51:13.064Z,5.13
2018-08-25T07:52:16.448Z,8.03
2018-08-25T07:53:19.849Z,3.57
2018-08-25T07:54:23.362Z,10.10
2018-08-25T07:55:26.793Z,5.97
2018-08-25T07:56:30.294Z,12.00
2018-08-25T07:57:33.705Z,11.70
2018-08-25T07:58:37.200Z,5.93
2018-08-25T07:59:40.717Z,5.20
2018-08-25T08:00:44.163Z,4.10
2018-08-25T08:01:47.735Z,3.97
2018-08-25T08:02:51.197Z,4.97
2018-08-25T08:03:54.670Z,6.63
2018-08-25T08:04:58.043Z,2.60
2018-08-25T08:06:01.481Z,3.10
2018-08-25T08:07:04.909Z,3.17
2018-08-25T08:08:08.336Z,4.20
2018-08-25T08:09:12.055Z,2.77
2018-08-25T08:10:15.456Z,3.83
2018-08-25T08:11:18.881Z,4.70
2018-08-25T08:12:22.300Z,3.47
2018-08-25T08:13:25.697Z,5.13
2018-08-25T08:14:29.189Z,4.73
2018-08-25T08:15:32.714Z,4.90
2018-08-25T08:16:38.014Z,4.97
2018-08-25T08:17:42.432Z,7.97
2018-08-25T08:18:46.022Z,5.50
2018-08-25T08:19:49.993Z,7.50
2018-08-25T08:20:58.424Z,8.53
2018-08-25T08:22:05.371Z,6.03
2018-08-25T08:23:12.525Z,11.03
2018-08-25T08:24:21.413Z,11.97
2018-08-25T08:25:30.176Z,20.60
2018-08-25T08:26:37.623Z,12.73
2018-08-25T08:27:44.023Z,10.57
2018-08-25T08:28:50.797Z,10.53
2018-08-25T08:29:57.822Z,17.80
2018-08-25T08:31:04.296Z,22.13
2018-08-25T08:32:11.874Z,18.10
2018-08-25T08:33:18.559Z,17.30
2018-08-25T08:34:25.065Z,17.67
2018-08-25T08:35:31.649Z,15.63
2018-08-25T08:36:38.448Z,13.60
2018-08-25T08:37:45.114Z,13.00
2018-08-25T08:38:54.286Z,7.70
2018-08-25T08:39:57.730Z,12.90
2018-08-25T08:41:01.140Z,10.90
2018-08-25T08:42:04.687Z,14.47
2018-08-25T08:43:08.069Z,11.50
2018-08-25T08:44:11.449Z,9.97
2018-08-25T08:45:14.821Z,10.80
2018-08-25T08:46:23.741Z,11.50
2018-08-25T08:47:27.166Z,10.33
2018-08-25T08:48:30.637Z,9.03
2018-08-25T08:49:46.307Z,8.03
2018-08-25T08:50:37.604Z,10.03
2018-08-25T08:51:40.990Z,11.60
2018-08-25T08:52:44.346Z,6.87
2018-08-25T08:53:47.736Z,10.67
2018-08-25T08:54:51.181Z,8.57
2018-08-25T08:55:54.675Z,6.77
2018-08-25T08:56:58.072Z,5.07
2018-08-25T08:58:01.472Z,12.73
2018-08-25T08:59:04.996Z,5.47
2018-08-25T09:00:08.630Z,9.53
2018-08-25T09:01:12.072Z,3.90
2018-08-25T09:02:15.628Z,5.70
2018-08-25T09:03:19.041Z,5.50
2018-08-25T09:04:22.460Z,4.20
2018-08-25T09:05:26.304Z,6.83
2018-08-25T09:06:29.754Z,7.57
2018-08-25T09:07:33.152Z,7.00
2018-08-25T09:08:36.627Z,7.87
2018-08-25T09:09:40.063Z,12.17
2018-08-25T09:10:43.619Z,33.80
2018-08-25T09:11:47.043Z,27.37
2018-08-25T09:12:50.609Z,43.90
2018-08-25T09:13:54.208Z,38.70
2018-08-25T09:14:57.644Z,49.63
2018-08-25T09:16:01.170Z,36.67
2018-08-25T09:17:04.538Z,36.90
2018-08-25T09:18:08.194Z,35.10
2018-08-25T09:19:11.818Z,41.13
2018-08-25T09:20:15.323Z,52.77
2018-08-25T09:21:19.441Z,42.57
2018-08-25T09:22:22.872Z,46.43
2018-08-25T09:23:26.278Z,51.33
2018-08-25T09:24:29.759Z,41.07
2018-08-25T09:25:33.190Z,66.80
2018-08-25T09:26:36.744Z,32.80
2018-08-25T09:27:40.160Z,48.63
2018-08-25T09:28:43.570Z,41.67
2018-08-25T09:29:47.118Z,47.43
2018-08-25T09:30:50.516Z,32.57
2018-08-25T09:31:53.990Z,36.47
2018-08-25T09:32:57.404Z,36.93
2018-08-25T09:34:00.807Z,30.13
2018-08-25T09:35:04.219Z,32.60
2018-08-25T09:36:07.648Z,30.63
2018-08-25T09:37:11.036Z,35.10
2018-08-25T09:38:14.412Z,32.33
2018-08-25T09:39:17.869Z,34.00
2018-08-25T09:40:21.286Z,29.70
2018-08-25T09:41:24.737Z,28.50
2018-08-25T09:42:28.356Z,32.63
2018-08-25T09:43:31.774Z,26.27
2018-08-25T09:44:35.221Z,28.20
2018-08-25T09:45:38.631Z,33.73
2018-08-25T09:46:42.178Z,34.90
2018-08-25T09:47:45.536Z,31.67
2018-08-25T09:48:49.155Z,28.83
2018-08-25T09:49:52.625Z,26.33
2018-08-25T09:50:56.048Z,26.67
2018-08-25T09:51:59.559Z,27.90
2018-08-25T09:53:03.074Z,25.40
2018-08-25T09:54:06.488Z,23.80
2018-08-25T09:55:09.842Z,29.70
2018-08-25T09:56:13.264Z,30.10
2018-08-25T09:57:16.731Z,29.87
2018-08-25T09:58:20.183Z,26.87
2018-08-25T09:59:23.673Z,33.43
2018-08-25T10:00:27.377Z,24.00
2018-08-25T10:01:32.423Z,31.93
2018-08-25T10:02:35.841Z,29.83
2018-08-25T10:03:39.240Z,18.23
2018-08-25T10:04:42.628Z,24.67
2018-08-25T10:05:46.036Z,25.17
2018-08-25T10:06:49.473Z,19.93
2018-08-25T10:07:52.942Z,23.80
2018-08-25T10:08:56.393Z,21.40
2018-08-25T10:09:59.819Z,33.67
2018-08-25T10:11:03.260Z,25.60
2018-08-25T10:12:06.643Z,22.10
2018-08-25T10:13:10.067Z,22.13
2018-08-25T10:14:13.553Z,23.93
2018-08-25T10:15:17.022Z,23.60
2018-08-25T10:16:20.464Z,21.97
2018-08-25T10:17:23.991Z,27.20
2018-08-25T10:18:27.438Z,21.40
2018-08-25T10:19:30.825Z,20.90
2018-08-25T10:20:34.224Z,19.90
2018-08-25T10:21:37.662Z,23.87
2018-08-25T10:22:41.086Z,23.37
2018-08-25T10:23:44.505Z,19.13
2018-08-25T10:24:47.915Z,19.00
2018-08-25T10:25:51.328Z,22.43
2018-08-25T10:26:54.731Z,19.90
2018-08-25T10:27:58.369Z,22.20
2018-08-25T10:29:01.842Z,20.90
2018-08-25T10:30:05.806Z,17.60
2018-08-25T10:31:09.174Z,17.00
2018-08-25T10:32:12.592Z,16.50
2018-08-25T10:33:15.995Z,19.77
2018-08-25T10:34:19.419Z,16.07
2018-08-25T10:35:23.548Z,15.80
2018-08-25T10:36:26.985Z,16.37
2018-08-25T10:37:30.635Z,17.30
2018-08-25T10:38:34.043Z,19.83
2018-08-25T10:39:37.466Z,18.70
2018-08-25T10:40:40.901Z,17.17
2018-08-25T10:41:44.395Z,18.83
2018-08-25T10:42:47.708Z,18.77
2018-08-25T10:43:51.190Z,18.43
2018-08-25T10:44:54.689Z,15.13
2018-08-25T10:45:58.092Z,15.43
2018-08-25T10:47:01.537Z,15.20
2018-08-25T10:48:05.078Z,14.97
2018-08-25T10:49:08.925Z,19.70
2018-08-25T10:50:12.608Z,17.40
2018-08-25T10:51:16.084Z,16.53
2018-08-25T10:52:19.673Z,17.80
2018-08-25T10:53:23.122Z,14.70
2018-08-25T10:54:26.538Z,14.10
2018-08-25T10:55:30.270Z,20.93
2018-08-25T10:56:33.727Z,15.60
2018-08-25T10:57:37.180Z,16.20
2018-08-25T10:58:40.581Z,13.83
2018-08-25T10:59:43.973Z,18.83
2018-08-25T11:00:47.612Z,17.57
2018-08-25T11:01:50.839Z,15.20
2018-08-25T11:02:54.269Z,15.57
2018-08-25T11:03:57.719Z,14.47
2018-08-25T11:05:01.120Z,17.17
2018-08-25T11:06:04.529Z,13.57
2018-08-25T11:07:07.992Z,17.27
2018-08-25T11:08:11.428Z,13.10
2018-08-25T11:09:15.106Z,16.97
2018-08-25T11:10:18.488Z,12.47
2018-08-25T11:11:21.900Z,12.67
2018-08-25T11:12:25.518Z,15.90
2018-08-25T11:13:29.295Z,13.70
2018-08-25T11:14:32.860Z,11.77
2018-08-25T11:15:36.286Z,13.17
2018-08-25T11:16:39.835Z,11.07
2018-08-25T11:17:43.247Z,13.37
2018-08-25T11:18:46.640Z,11.83
2018-08-25T11:19:50.018Z,13.73
2018-08-25T11:20:53.434Z,11.60
2018-08-25T11:21:56.872Z,14.37
2018-08-25T11:23:00.333Z,11.17
2018-08-25T11:24:03.769Z,18.17
2018-08-25T11:25:07.203Z,16.10
2018-08-25T11:26:10.604Z,12.70
2018-08-25T11:27:14.021Z,13.43
2018-08-25T11:28:17.444Z,13.97
2018-08-25T11:29:20.956Z,10.30
2018-08-25T11:30:24.425Z,14.83
2018-08-25T11:31:27.814Z,11.53
2018-08-25T11:32:31.252Z,13.63
2018-08-25T11:33:34.665Z,12.17
2018-08-25T11:34:38.106Z,12.20
2018-08-25T11:35:41.527Z,10.50
2018-08-25T11:36:44.996Z,11.43
2018-08-25T11:37:48.546Z,11.57
2018-08-25T11:38:52.037Z,11.43
2018-08-25T11:39:55.473Z,10.30
2018-08-25T11:40:58.905Z,9.23
2018-08-25T11:42:02.308Z,11.13
2018-08-25T11:43:05.869Z,14.00
2018-08-25T11:44:09.369Z,12.63
2018-08-25T11:45:12.988Z,8.50
2018-08-25T11:46:16.385Z,10.73
2018-08-25T11:47:19.749Z,14.40
2018-08-25T11:48:23.169Z,10.40
2018-08-25T11:49:26.621Z,12.20
2018-08-25T11:50:30.052Z,10.80
2018-08-25T11:51:33.562Z,10.17
2018-08-25T11:52:36.936Z,10.53
2018-08-25T11:53:40.335Z,9.67
2018-08-25T11:54:44.095Z,10.67
2018-08-25T11:55:47.508Z,9.53
2018-08-25T11:56:50.924Z,9.67
2018-08-25T11:57:54.506Z,11.77
2018-08-25T11:58:58.018Z,11.63
2018-08-25T12:00:01.397Z,12.13
2018-08-25T12:01:04.979Z,11.33
2018-08-25T12:02:08.497Z,10.27
2018-08-25T12:03:11.896Z,11.67
2018-08-25T12:04:15.274Z,10.33
2018-08-25T12:05:18.703Z,13.60
2018-08-25T12:06:22.724Z,11.67
2018-08-25T12:07:26.256Z,7.93
2018-08-25T12:08:29.662Z,8.47
2018-08-25T12:09:33.150Z,10.50
2018-08-25T12:10:36.707Z,9.10
2018-08-25T12:11:40.436Z,9.73
2018-08-25T12:12:43.903Z,8.43
2018-08-25T12:13:47.314Z,9.60
2018-08-25T12:14:50.736Z,6.20
2018-08-25T12:15:54.303Z,9.47
2018-08-25T12:16:57.754Z,7.73
2018-08-25T12:18:01.190Z,9.80
2018-08-25T12:19:04.637Z,6.27
2018-08-25T12:20:08.048Z,7.47
2018-08-25T12:21:11.482Z,8.83
2018-08-25T12:22:14.935Z,9.97
2018-08-25T12:23:18.327Z,9.47
2018-08-25T12:24:21.693Z,8.97
2018-08-25T12:25:25.100Z,8.70
2018-08-25T12:26:28.554Z,9.90
2018-08-25T12:27:32.090Z,7.67
2018-08-25T12:28:35.688Z,9.00
2018-08-25T12:29:39.095Z,9.20
2018-08-25T12:30:42.598Z,7.40
2018-08-25T12:31:45.987Z,8.53
2018-08-25T12:32:49.360Z,7.10
2018-08-25T12:33:52.761Z,8.50
2018-08-25T12:34:56.262Z,7.57
2018-08-25T12:35:59.738Z,6.80
2018-08-25T12:37:03.140Z,6.67
2018-08-25T12:38:06.583Z,8.67
2018-08-25T12:39:11.223Z,10.80
2018-08-25T12:40:14.590Z,10.70
2018-08-25T12:41:18.327Z,5.90
2018-08-25T12:42:21.806Z,9.17
2018-08-25T12:43:25.223Z,6.87
2018-08-25T12:44:28.749Z,6.67
2018-08-25T12:45:32.170Z,5.67
2018-08-25T12:46:35.618Z,9.90
2018-08-25T12:47:39.052Z,6.77
2018-08-25T12:48:42.493Z,8.07
2018-08-25T12:49:45.870Z,7.03
2018-08-25T12:50:49.402Z,6.80
2018-08-25T12:51:53.056Z,4.53
2018-08-25T12:52:56.576Z,7.20
2018-08-25T12:54:00.060Z,6.43
2018-08-25T12:55:03.444Z,6.90
2018-08-25T12:56:07.041Z,7.80
2018-08-25T12:57:10.499Z,6.40
2018-08-25T12:58:13.958Z,5.43
2018-08-25T12:59:17.325Z,6.13
2018-08-25T13:00:20.743Z,7.97
2018-08-25T13:01:24.284Z,6.10
2018-08-25T13:02:27.705Z,6.30
2018-08-25T13:03:31.147Z,6.13
2018-08-25T13:04:34.529Z,5.93
2018-08-25T13:05:37.927Z,6.57
2018-08-25T13:06:41.332Z,6.43
2018-08-25T13:07:44.727Z,5.77
2018-08-25T13:08:48.126Z,6.00
2018-08-25T13:09:51.533Z,7.43
2018-08-25T13:10:55.033Z,5.47
2018-08-25T13:11:58.447Z,6.17
2018-08-25T13:13:01.949Z,5.13
2018-08-25T13:14:05.570Z,5.17
2018-08-25T13:15:08.981Z,7.07
2018-08-25T13:16:12.357Z,6.30
2018-08-25T13:17:15.739Z,4.80
2018-08-25T13:18:19.221Z,5.20
2018-08-25T13:19:22.685Z,6.00
2018-08-25T13:20:26.062Z,5.00
2018-08-25T13:21:29.539Z,7.40
2018-08-25T13:22:32.920Z,5.73
2018-08-25T13:23:36.326Z,6.27
2018-08-25T13:24:39.738Z,4.80
2018-08-25T13:25:43.137Z,4.60
2018-08-25T13:26:46.564Z,7.13
2018-08-25T13:27:49.981Z,6.10
2018-08-25T13:28:53.520Z,7.43
2018-08-25T13:29:56.939Z,5.70
2018-08-25T13:31:00.419Z,5.53
2018-08-25T13:32:03.757Z,4.53
2018-08-25T13:33:07.180Z,4.23
2018-08-25T13:34:10.589Z,8.70
2018-08-25T13:35:14.117Z,3.73
2018-08-25T13:36:17.518Z,6.43
2018-08-25T13:37:20.894Z,4.33
2018-08-25T13:38:24.282Z,6.40
2018-08-25T13:39:27.696Z,6.00
2018-08-25T13:40:31.130Z,6.57
2018-08-25T13:41:34.608Z,4.87
2018-08-25T13:42:38.021Z,4.67
2018-08-25T13:43:41.558Z,4.93
2018-08-25T13:44:44.985Z,4.97
2018-08-25T13:45:48.378Z,4.87
2018-08-25T13:46:51.819Z,5.60
2018-08-25T13:47:55.247Z,4.70
2018-08-25T13:48:58.781Z,6.30
2018-08-25T13:50:02.205Z,3.93
2018-08-25T13:51:05.724Z,3.93
2018-08-25T13:52:09.092Z,4.70
2018-08-25T13:53:12.525Z,5.60
2018-08-25T13:54:15.944Z,5.23
2018-08-25T13:55:19.417Z,5.63
2018-08-25T13:56:22.891Z,4.93
2018-08-25T13:57:26.342Z,4.37
2018-08-25T13:58:29.735Z,5.17
2018-08-25T13:59:33.122Z,3.93